createdAt,value
2023-04-30T00:00:13.056Z,8.36
2023-04-30T00:02:44.771Z,8.34
2023-04-30T00:05:16.355Z,8.29
2023-04-30T00:07:48.156Z,8.27
2023-04-30T00:10:19.642Z,8.23
2023-04-30T00:12:51.134Z,8.19
2023-04-30T00:15:22.607Z,8.12
2023-04-30T00:17:54.139Z,8.12
2023-04-30T00:20:25.617Z,8.07
2023-04-30T00:22:57.222Z,8.01
2023-04-30T00:25:28.686Z,7.98
2023-04-30T00:28:00.520Z,7.97
2023-04-30T00:30:31.992Z,7.93
2023-04-30T00:33:03.838Z,7.94
2023-04-30T00:35:35.352Z,7.93
2023-04-30T00:38:06.831Z,7.91
2023-04-30T00:40:38.870Z,7.89
2023-04-30T00:43:10.351Z,7.84
2023-04-30T00:45:42.108Z,7.80
2023-04-30T00:48:13.613Z,7.78
2023-04-30T00:50:45.470Z,7.73
2023-04-30T00:53:16.951Z,7.71
2023-04-30T00:55:48.753Z,7.68
2023-04-30T00:58:20.210Z,7.63
2023-04-30T01:00:51.986Z,7.60
2023-04-30T01:03:23.729Z,7.52
2023-04-30T01:05:55.323Z,7.46
2023-04-30T01:08:26.796Z,7.43
2023-04-30T01:10:58.706Z,7.37
2023-04-30T01:13:30.173Z,7.31
2023-04-30T01:16:02.026Z,7.26
2023-04-30T01:18:33.591Z,7.24
2023-04-30T01:21:05.458Z,7.19
2023-04-30T01:23:36.919Z,7.11
2023-04-30T01:26:08.392Z,7.10
2023-04-30T01:28:39.870Z,7.05
2023-04-30T01:31:11.725Z,7.05
2023-04-30T01:33:43.197Z,7.02
2023-04-30T01:36:14.969Z,7.00
2023-04-30T01:38:46.435Z,6.97
2023-04-30T01:41:17.897Z,6.93
2023-04-30T01:43:49.385Z,6.90
2023-04-30T01:46:20.938Z,6.90
2023-04-30T01:48:52.413Z,6.88
2023-04-30T01:51:24.256Z,6.86
2023-04-30T01:53:55.706Z,6.83
2023-04-30T01:56:27.529Z,6.83
2023-04-30T01:58:58.997Z,6.81
2023-04-30T02:01:30.914Z,6.79
2023-04-30T02:04:02.539Z,6.74
2023-04-30T02:06:34.582Z,6.73
2023-04-30T02:09:06.109Z,6.67
2023-04-30T02:11:37.746Z,6.64
2023-04-30T02:14:09.216Z,6.62
2023-04-30T02:16:40.767Z,6.59
2023-04-30T02:19:12.298Z,6.55
2023-04-30T02:21:44.235Z,6.52
2023-04-30T02:24:15.767Z,6.49
2023-04-30T02:26:47.473Z,6.46
2023-04-30T02:29:18.952Z,6.45
2023-04-30T02:31:50.444Z,6.38
2023-04-30T02:34:21.921Z,6.33
2023-04-30T02:36:53.386Z,6.28
2023-04-30T02:39:24.831Z,6.21
2023-04-30T02:41:56.297Z,6.16
2023-04-30T02:44:27.755Z,6.07
2023-04-30T02:46:59.485Z,6.02
2023-04-30T02:49:30.918Z,5.94
2023-04-30T02:52:02.696Z,5.89
2023-04-30T02:54:34.136Z,5.83
2023-04-30T02:57:06.020Z,5.79
2023-04-30T02:59:37.467Z,5.75
2023-04-30T03:02:09.568Z,5.69
2023-04-30T03:04:41.062Z,5.65
2023-04-30T03:07:12.806Z,5.59
2023-04-30T03:09:44.253Z,5.55
2023-04-30T03:12:15.964Z,5.53
2023-04-30T03:14:47.411Z,5.47
2023-04-30T03:17:19.047Z,5.43
2023-04-30T03:19:50.550Z,5.38
2023-04-30T03:22:22.278Z,5.35
2023-04-30T03:24:53.720Z,5.33
2023-04-30T03:27:25.478Z,5.27
2023-04-30T03:29:57.085Z,5.25
2023-04-30T03:32:29.107Z,5.24
2023-04-30T03:35:00.608Z,5.17
2023-04-30T03:37:32.361Z,5.14
2023-04-30T03:40:03.817Z,5.13
2023-04-30T03:42:35.554Z,5.13
2023-04-30T03:45:07.004Z,5.10
2023-04-30T03:47:38.813Z,5.11
2023-04-30T03:50:10.282Z,5.08
2023-04-30T03:52:42.113Z,5.08
2023-04-30T03:55:13.581Z,5.10
2023-04-30T03:57:45.337Z,5.09
2023-04-30T04:00:16.808Z,5.08
2023-04-30T04:02:48.502Z,5.08
2023-04-30T04:05:20.021Z,5.13
2023-04-30T04:07:51.540Z,5.14
2023-04-30T04:10:22.988Z,5.11
2023-04-30T04:12:54.955Z,5.18
2023-04-30T04:15:26.449Z,5.22
2023-04-30T04:17:58.240Z,5.25
2023-04-30T04:20:29.785Z,5.31
2023-04-30T04:23:01.513Z,5.34
2023-04-30T04:25:32.957Z,5.40
2023-04-30T04:28:04.688Z,5.39
2023-04-30T04:30:36.202Z,5.46
2023-04-30T04:33:08.018Z,5.50
2023-04-30T04:35:39.496Z,5.54
2023-04-30T04:38:11.601Z,5.55
2023-04-30T04:40:43.085Z,5.63
2023-04-30T04:43:15.016Z,5.71
2023-04-30T04:45:46.487Z,5.81
2023-04-30T04:48:18.321Z,5.80
2023-04-30T04:50:49.811Z,5.87
2023-04-30T04:53:21.601Z,5.94
2023-04-30T04:55:53.065Z,6.02
2023-04-30T04:58:25.111Z,6.16
2023-04-30T05:00:56.669Z,6.21
2023-04-30T05:03:28.618Z,6.13
2023-04-30T05:06:00.279Z,6.31
2023-04-30T05:08:32.156Z,6.52
2023-04-30T05:11:03.629Z,6.45
2023-04-30T05:13:35.445Z,6.39
2023-04-30T05:16:06.907Z,6.61
2023-04-30T05:18:38.744Z,6.67
2023-04-30T05:21:10.300Z,6.76
2023-04-30T05:23:42.121Z,6.92
2023-04-30T05:26:13.590Z,6.90
2023-04-30T05:28:45.530Z,6.92
2023-04-30T05:31:17.817Z,6.99
2023-04-30T05:33:50.506Z,7.12
2023-04-30T05:36:21.976Z,7.32
2023-04-30T05:38:53.929Z,7.48
2023-04-30T05:41:25.446Z,7.63
2023-04-30T05:43:57.275Z,7.78
2023-04-30T05:46:28.977Z,7.72
2023-04-30T05:49:01.014Z,7.80
2023-04-30T05:51:33.241Z,7.80
2023-04-30T05:54:05.096Z,7.96
2023-04-30T05:56:36.585Z,8.07
2023-04-30T05:59:08.421Z,8.10
2023-04-30T06:01:39.979Z,8.33
2023-04-30T06:04:12.034Z,8.43
2023-04-30T06:06:43.656Z,8.57
2023-04-30T06:09:15.644Z,8.69
2023-04-30T06:11:47.124Z,8.92
2023-04-30T06:14:19.137Z,8.97
2023-04-30T06:16:50.668Z,9.01
2023-04-30T06:19:22.370Z,8.76
2023-04-30T06:21:53.897Z,8.74
2023-04-30T06:24:25.735Z,9.03
2023-04-30T06:26:57.223Z,9.34
2023-04-30T06:29:28.810Z,9.68
2023-04-30T06:32:00.253Z,9.57
2023-04-30T06:34:32.125Z,9.92
2023-04-30T06:37:03.716Z,10.30
2023-04-30T06:39:35.664Z,10.36
2023-04-30T06:42:07.108Z,10.61
2023-04-30T06:44:38.878Z,10.59
2023-04-30T06:47:10.388Z,10.25
2023-04-30T06:49:42.288Z,10.47
2023-04-30T06:52:13.774Z,10.50
2023-04-30T06:54:45.532Z,11.07
2023-04-30T06:57:17.051Z,10.80
2023-04-30T06:59:48.878Z,10.71
2023-04-30T07:02:22.033Z,11.22
2023-04-30T07:04:53.970Z,11.33
2023-04-30T07:07:25.433Z,11.75
2023-04-30T07:09:57.584Z,10.90
2023-04-30T07:12:29.275Z,11.55
2023-04-30T07:15:01.009Z,11.76
2023-04-30T07:17:32.558Z,11.18
2023-04-30T07:20:04.392Z,11.61
2023-04-30T07:22:35.856Z,12.41
2023-04-30T07:25:07.535Z,12.09
2023-04-30T07:27:38.997Z,11.72
2023-04-30T07:30:10.709Z,11.87
2023-04-30T07:32:42.201Z,12.16
2023-04-30T07:35:13.844Z,12.32
2023-04-30T07:37:45.396Z,12.35
2023-04-30T07:40:25.356Z,12.52
2023-04-30T07:43:06.703Z,11.72
2023-04-30T07:45:38.589Z,12.02
2023-04-30T07:48:10.136Z,12.47
2023-04-30T07:50:41.807Z,12.67
2023-04-30T07:53:13.759Z,12.68
2023-04-30T07:55:45.255Z,12.04
2023-04-30T07:58:17.069Z,13.18
2023-04-30T08:00:48.597Z,13.18
2023-04-30T08:03:20.595Z,13.66
2023-04-30T08:05:52.178Z,13.42
2023-04-30T08:08:23.652Z,13.44
2023-04-30T08:10:55.114Z,13.76
2023-04-30T08:13:26.999Z,12.88
2023-04-30T08:15:58.480Z,12.74
2023-04-30T08:18:30.339Z,13.41
2023-04-30T08:21:01.782Z,13.74
2023-04-30T08:23:33.654Z,13.96
2023-04-30T08:26:05.135Z,14.00
2023-04-30T08:28:36.832Z,13.67
2023-04-30T08:31:08.343Z,14.48
2023-04-30T08:33:40.195Z,14.94
2023-04-30T08:36:11.653Z,14.68
2023-04-30T08:38:43.674Z,15.29
2023-04-30T08:41:15.117Z,15.09
2023-04-30T08:43:46.913Z,15.17
2023-04-30T08:46:18.403Z,15.41
2023-04-30T08:48:49.905Z,15.16
2023-04-30T08:51:21.474Z,14.52
2023-04-30T08:53:53.078Z,15.07
2023-04-30T08:56:25.482Z,14.24
2023-04-30T08:58:57.154Z,14.14
2023-04-30T09:01:28.700Z,15.04
2023-04-30T09:04:00.545Z,15.18
2023-04-30T09:06:32.118Z,15.37
2023-04-30T09:09:03.654Z,15.95
2023-04-30T09:11:35.107Z,15.51
2023-04-30T09:14:06.603Z,15.46
2023-04-30T09:16:38.066Z,15.96
2023-04-30T09:19:09.544Z,16.40
2023-04-30T09:21:41.006Z,16.39
2023-04-30T09:24:12.612Z,16.27
2023-04-30T09:26:44.116Z,16.03
2023-04-30T09:29:16.106Z,15.43
2023-04-30T09:31:47.710Z,15.81
2023-04-30T09:34:19.709Z,16.61
2023-04-30T09:36:51.190Z,16.59
2023-04-30T09:39:22.948Z,16.11
2023-04-30T09:41:54.414Z,16.77
2023-04-30T09:44:25.938Z,16.45
2023-04-30T09:46:57.502Z,16.77
2023-04-30T09:49:29.585Z,16.92
2023-04-30T09:52:01.181Z,17.42
2023-04-30T09:54:32.872Z,17.06
2023-04-30T09:57:04.367Z,16.40
2023-04-30T09:59:36.172Z,16.99
2023-04-30T10:02:07.635Z,16.31
2023-04-30T10:04:39.420Z,16.39
2023-04-30T10:07:12.079Z,16.72
2023-04-30T10:09:45.279Z,16.74
2023-04-30T10:12:16.755Z,16.75
2023-04-30T10:14:48.598Z,16.95
2023-04-30T10:17:20.113Z,17.78
2023-04-30T10:19:51.632Z,17.56
2023-04-30T10:22:23.154Z,17.29
2023-04-30T10:24:54.688Z,17.96
2023-04-30T10:27:26.196Z,17.55
2023-04-30T10:29:58.212Z,17.08
2023-04-30T10:32:29.950Z,17.84
2023-04-30T10:35:01.908Z,17.65
2023-04-30T10:37:33.372Z,17.74
2023-04-30T10:40:05.217Z,17.17
2023-04-30T10:42:36.834Z,17.23
2023-04-30T10:45:08.613Z,17.06
2023-04-30T10:47:40.270Z,17.56
2023-04-30T10:50:12.090Z,17.25
2023-04-30T10:52:43.545Z,17.57
2023-04-30T10:55:15.068Z,17.50
2023-04-30T10:57:46.550Z,18.44
2023-04-30T11:00:18.406Z,18.19
2023-04-30T11:02:50.035Z,17.33
2023-04-30T11:05:21.581Z,17.98
2023-04-30T11:07:53.098Z,18.72
2023-04-30T11:10:25.819Z,18.58
2023-04-30T11:12:57.803Z,18.39
2023-04-30T11:15:30.087Z,18.52
2023-04-30T11:18:01.942Z,17.86
2023-04-30T11:20:33.440Z,18.01
2023-04-30T11:23:05.259Z,18.11
2023-04-30T11:25:36.704Z,18.63
2023-04-30T11:28:08.167Z,18.89
2023-04-30T11:30:39.644Z,18.36
2023-04-30T11:33:11.324Z,18.32
2023-04-30T11:35:42.812Z,18.20
2023-04-30T11:38:14.529Z,17.87
2023-04-30T11:40:45.978Z,17.68
2023-04-30T11:43:17.792Z,18.17
2023-04-30T11:45:49.271Z,18.80
2023-04-30T11:48:21.420Z,18.66
2023-04-30T11:50:52.917Z,18.95
2023-04-30T11:53:24.777Z,19.42
2023-04-30T11:55:56.258Z,18.57
2023-04-30T11:58:28.038Z,18.93
2023-04-30T12:00:59.539Z,19.00
2023-04-30T12:03:31.613Z,18.81
2023-04-30T12:06:03.210Z,19.24
2023-04-30T12:08:34.752Z,19.30
2023-04-30T12:11:06.248Z,19.51
2023-04-30T12:13:38.057Z,18.61
2023-04-30T12:16:09.511Z,18.11
2023-04-30T12:18:41.497Z,18.66
2023-04-30T12:21:13.010Z,18.99
2023-04-30T12:23:44.691Z,18.60
2023-04-30T12:26:16.139Z,19.02
2023-04-30T12:28:48.031Z,19.11
2023-04-30T12:31:19.581Z,19.22
2023-04-30T12:33:51.070Z,18.97
2023-04-30T12:36:22.568Z,18.81
2023-04-30T12:38:54.097Z,19.08
2023-04-30T12:41:25.567Z,19.07
2023-04-30T12:43:57.052Z,19.45
2023-04-30T12:46:28.520Z,19.17
2023-04-30T12:49:00.488Z,19.08
2023-04-30T12:51:31.940Z,18.82
2023-04-30T12:54:03.670Z,19.55
2023-04-30T12:56:35.128Z,19.80
2023-04-30T12:59:06.964Z,20.11
2023-04-30T13:01:39.025Z,19.90
2023-04-30T13:04:10.531Z,19.85
2023-04-30T13:06:42.380Z,19.87
2023-04-30T13:09:13.988Z,18.84
2023-04-30T13:11:45.695Z,19.42
2023-04-30T13:14:17.162Z,20.15
2023-04-30T13:16:48.960Z,20.77
2023-04-30T13:19:20.441Z,21.10
2023-04-30T13:21:51.937Z,21.18
2023-04-30T13:24:23.408Z,20.58
2023-04-30T13:26:54.893Z,21.31
2023-04-30T13:29:26.381Z,21.20
2023-04-30T13:31:58.206Z,21.48
2023-04-30T13:34:29.685Z,21.98
2023-04-30T13:37:01.342Z,21.17
2023-04-30T13:39:32.806Z,21.58
2023-04-30T13:42:04.512Z,21.36
2023-04-30T13:44:36.012Z,21.62
2023-04-30T13:47:07.855Z,21.69
2023-04-30T13:49:39.494Z,22.22
2023-04-30T13:52:11.304Z,22.04
2023-04-30T13:54:42.933Z,22.26
2023-04-30T13:57:14.705Z,22.22
2023-04-30T13:59:46.267Z,21.75
2023-04-30T14:02:18.108Z,22.26
2023-04-30T14:05:02.079Z,21.93
2023-04-30T14:07:37.498Z,22.38
2023-04-30T14:10:08.995Z,23.05
2023-04-30T14:12:40.812Z,23.34
2023-04-30T14:15:12.327Z,23.40
2023-04-30T14:17:44.200Z,23.45
2023-04-30T14:20:15.693Z,23.07
2023-04-30T14:22:47.334Z,22.09
2023-04-30T14:25:18.795Z,21.95
2023-04-30T14:27:50.318Z,22.27
2023-04-30T14:30:21.804Z,22.70
2023-04-30T14:32:53.367Z,22.41
2023-04-30T14:35:24.820Z,23.43
2023-04-30T14:37:56.328Z,23.23
2023-04-30T14:40:27.810Z,23.24
2023-04-30T14:42:59.640Z,23.39
2023-04-30T14:45:31.136Z,23.54
2023-04-30T14:48:05.229Z,23.12
2023-04-30T14:50:37.057Z,23.18
2023-04-30T14:53:08.850Z,23.70
2023-04-30T14:55:40.369Z,23.69
2023-04-30T14:58:11.867Z,22.26
2023-04-30T15:00:43.317Z,22.25
2023-04-30T15:03:15.186Z,23.33
2023-04-30T15:05:46.733Z,23.07
2023-04-30T15:08:18.521Z,23.25
2023-04-30T15:10:49.988Z,23.47
2023-04-30T15:13:21.710Z,23.28
2023-04-30T15:15:53.254Z,22.84
2023-04-30T15:18:25.301Z,23.76
2023-04-30T15:20:56.741Z,23.76
2023-04-30T15:23:28.402Z,23.69
2023-04-30T15:25:59.838Z,23.77
2023-04-30T15:28:31.620Z,24.01
2023-04-30T15:31:03.083Z,23.39
2023-04-30T15:33:34.948Z,23.11
2023-04-30T15:36:06.494Z,23.10
2023-04-30T15:38:37.966Z,23.21
2023-04-30T15:41:09.414Z,22.59
2023-04-30T15:43:41.228Z,22.50
2023-04-30T15:46:12.705Z,23.05
2023-04-30T15:48:44.203Z,22.61
2023-04-30T15:51:15.653Z,21.77
2023-04-30T15:53:47.506Z,21.54
2023-04-30T15:56:18.980Z,21.09
2023-04-30T15:58:50.430Z,20.35
2023-04-30T16:01:21.938Z,19.33
2023-04-30T16:03:53.474Z,18.96
2023-04-30T16:06:24.991Z,18.44
2023-04-30T16:08:56.479Z,18.22
2023-04-30T16:11:27.925Z,17.91
2023-04-30T16:13:59.917Z,17.45
2023-04-30T16:16:31.419Z,16.98
2023-04-30T16:19:03.221Z,16.59
2023-04-30T16:21:36.616Z,16.14
2023-04-30T16:24:08.912Z,16.00
2023-04-30T16:26:40.420Z,16.09
2023-04-30T16:29:12.238Z,16.10
2023-04-30T16:31:44.143Z,16.16
2023-04-30T16:34:15.620Z,16.16
2023-04-30T16:36:47.399Z,16.21
2023-04-30T16:39:18.848Z,16.15
2023-04-30T16:41:50.325Z,16.14
2023-04-30T16:44:21.816Z,16.00
2023-04-30T16:46:53.303Z,15.92
2023-04-30T16:49:24.832Z,15.78
2023-04-30T16:51:56.289Z,15.87
2023-04-30T16:54:27.784Z,15.74
2023-04-30T16:56:59.618Z,15.74
2023-04-30T16:59:31.137Z,15.73
2023-04-30T17:02:02.649Z,15.62
2023-04-30T17:04:34.171Z,15.48
2023-04-30T17:07:05.988Z,15.49
2023-04-30T17:09:37.436Z,15.36
2023-04-30T17:12:09.087Z,15.33
2023-04-30T17:14:40.551Z,15.29
2023-04-30T17:17:12.376Z,15.25
2023-04-30T17:19:43.865Z,15.31
2023-04-30T17:22:15.724Z,15.28
2023-04-30T17:24:47.240Z,15.29
2023-04-30T17:27:20.124Z,15.24
2023-04-30T17:29:51.636Z,15.23
2023-04-30T17:32:23.300Z,15.13
2023-04-30T17:34:54.744Z,14.95
2023-04-30T17:37:26.212Z,14.91
2023-04-30T17:39:57.913Z,14.84
2023-04-30T17:42:30.033Z,14.69
2023-04-30T17:45:01.492Z,14.67
2023-04-30T17:47:33.379Z,14.63
2023-04-30T17:50:04.926Z,14.58
2023-04-30T17:52:36.661Z,14.56
2023-04-30T17:55:08.229Z,14.54
2023-04-30T17:57:39.822Z,14.43
2023-04-30T18:00:11.282Z,14.34
2023-04-30T18:02:43.303Z,14.31
2023-04-30T18:05:14.946Z,14.24
2023-04-30T18:07:46.477Z,14.13
2023-04-30T18:10:17.975Z,14.02
2023-04-30T18:12:49.455Z,14.04
2023-04-30T18:15:20.928Z,14.00
2023-04-30T18:17:52.456Z,13.89
2023-04-30T18:20:23.948Z,13.80
2023-04-30T18:22:55.458Z,13.71
2023-04-30T18:25:26.917Z,13.55
2023-04-30T18:27:58.805Z,13.44
2023-04-30T18:30:30.245Z,13.33
2023-04-30T18:33:02.098Z,13.22
2023-04-30T18:35:33.579Z,13.10
2023-04-30T18:38:05.189Z,12.98
2023-04-30T18:40:36.655Z,12.87
2023-04-30T18:43:08.649Z,12.80
2023-04-30T18:45:40.104Z,12.71
2023-04-30T18:48:11.645Z,12.58
2023-04-30T18:50:43.416Z,12.48
2023-04-30T18:53:15.432Z,12.39
2023-04-30T18:55:46.935Z,12.31
2023-04-30T18:58:18.556Z,12.23
2023-04-30T19:00:50.029Z,12.11
2023-04-30T19:03:21.968Z,12.03
2023-04-30T19:05:53.458Z,12.02
2023-04-30T19:08:24.917Z,11.98
2023-04-30T19:10:56.406Z,11.91
2023-04-30T19:13:27.947Z,11.81
2023-04-30T19:15:59.465Z,11.71
2023-04-30T19:18:30.982Z,11.59
2023-04-30T19:21:02.432Z,11.52
2023-04-30T19:23:34.317Z,11.43
2023-04-30T19:26:05.820Z,11.34
2023-04-30T19:28:37.944Z,11.27
2023-04-30T19:31:09.559Z,11.20
2023-04-30T19:33:41.395Z,11.14
2023-04-30T19:36:12.844Z,11.12
2023-04-30T19:38:44.323Z,11.04
2023-04-30T19:41:15.769Z,10.98
2023-04-30T19:43:47.260Z,10.88
2023-04-30T19:46:18.783Z,10.86
2023-04-30T19:48:50.316Z,10.81
2023-04-30T19:51:21.784Z,10.81
2023-04-30T19:53:53.272Z,10.75
2023-04-30T19:56:24.701Z,10.71
2023-04-30T19:58:56.144Z,10.65
2023-04-30T20:01:27.627Z,10.59
2023-04-30T20:03:59.614Z,10.56
2023-04-30T20:06:31.720Z,10.51
2023-04-30T20:09:03.251Z,10.49
2023-04-30T20:11:34.754Z,10.48
2023-04-30T20:14:06.257Z,10.47
2023-04-30T20:16:37.832Z,10.41
2023-04-30T20:19:09.434Z,10.35
2023-04-30T20:21:41.378Z,10.26
2023-04-30T20:24:12.869Z,10.21
2023-04-30T20:26:44.342Z,10.10
2023-04-30T20:29:15.805Z,9.90
2023-04-30T20:31:47.302Z,9.88
2023-04-30T20:34:18.783Z,9.82
2023-04-30T20:36:50.265Z,9.84
2023-04-30T20:39:21.789Z,9.85
2023-04-30T20:41:53.271Z,9.83
2023-04-30T20:44:24.718Z,9.79
2023-04-30T20:46:56.298Z,9.74
2023-04-30T20:49:27.797Z,9.67
2023-04-30T20:51:59.588Z,9.64
2023-04-30T20:54:31.027Z,9.60
2023-04-30T20:57:02.646Z,9.56
2023-04-30T20:59:34.129Z,9.55
2023-04-30T21:02:05.627Z,9.47
2023-04-30T21:04:37.112Z,9.46
2023-04-30T21:07:08.850Z,9.44
2023-04-30T21:09:40.298Z,9.45
2023-04-30T21:12:12.104Z,9.45
2023-04-30T21:14:43.553Z,9.42
2023-04-30T21:17:15.522Z,9.37
2023-04-30T21:19:46.990Z,9.27
2023-04-30T21:22:18.761Z,9.26
2023-04-30T21:24:50.302Z,9.24
2023-04-30T21:27:21.996Z,9.24
2023-04-30T21:29:53.661Z,9.20
2023-04-30T21:32:25.358Z,9.17
2023-04-30T21:34:56.829Z,9.12
2023-04-30T21:37:28.355Z,9.08
2023-04-30T21:39:59.815Z,9.05
2023-04-30T21:42:31.619Z,9.03
2023-04-30T21:45:03.078Z,9.05
2023-04-30T21:47:34.870Z,9.05
2023-04-30T21:50:06.384Z,9.02
2023-04-30T21:52:38.166Z,8.99
2023-04-30T21:55:09.620Z,8.98
2023-04-30T21:57:41.297Z,8.95
2023-04-30T22:00:12.800Z,8.90
2023-04-30T22:02:44.578Z,8.86
2023-04-30T22:05:16.132Z,8.85
2023-04-30T22:07:47.779Z,8.80
2023-04-30T22:10:19.436Z,8.76
2023-04-30T22:12:50.959Z,8.70
2023-04-30T22:15:22.445Z,8.65
2023-04-30T22:17:54.022Z,8.64
2023-04-30T22:20:25.537Z,8.59
2023-04-30T22:22:57.024Z,8.56
2023-04-30T22:25:28.494Z,8.51
2023-04-30T22:28:00.284Z,8.46
2023-04-30T22:30:31.756Z,8.44
2023-04-30T22:33:03.580Z,8.40
2023-04-30T22:35:35.190Z,8.36
2023-04-30T22:38:06.694Z,8.33
2023-04-30T22:40:38.229Z,8.28
2023-04-30T22:43:09.881Z,8.25
2023-04-30T22:45:41.349Z,8.18
2023-04-30T22:48:12.957Z,8.15
2023-04-30T22:50:44.426Z,8.13
2023-04-30T22:53:16.236Z,8.11
2023-04-30T22:55:47.670Z,8.09
2023-04-30T22:58:19.187Z,8.00
2023-04-30T23:00:50.675Z,7.98
2023-04-30T23:03:22.400Z,7.94
2023-04-30T23:05:53.854Z,7.90
2023-04-30T23:08:25.299Z,7.87
2023-04-30T23:10:56.782Z,7.83
2023-04-30T23:13:28.723Z,7.79
2023-04-30T23:16:00.192Z,7.76
2023-04-30T23:18:32.192Z,7.73
2023-04-30T23:21:03.678Z,7.69
2023-04-30T23:23:35.444Z,7.64
2023-04-30T23:26:07.225Z,7.59
2023-04-30T23:28:38.676Z,7.55
2023-04-30T23:31:10.511Z,7.52
2023-04-30T23:33:42.011Z,7.45
2023-04-30T23:36:13.824Z,7.43
2023-04-30T23:38:45.338Z,7.35
2023-04-30T23:41:17.173Z,7.33
2023-04-30T23:43:48.614Z,7.27
2023-04-30T23:46:20.557Z,7.26
2023-04-30T23:48:52.051Z,7.23
2023-04-30T23:51:24.168Z,7.20
2023-04-30T23:53:55.632Z,7.11
2023-04-30T23:56:27.391Z,7.07
2023-04-30T23:58:58.863Z,7.02
